sensor_id;sensor_type;location;lat;lon;timestamp;P1;durP1;ratioP1;P2;durP2;ratioP2
12367;SDS011;6248;49.812;6.620;2023-06-10T00:01:24;5.68;;;4.63;;
12367;SDS011;6248;49.812;6.620;2023-06-10T00:03:52;4.45;;;4.10;;
12367;SDS011;6248;49.812;6.620;2023-06-10T00:06:20;4.50;;;4.13;;
12367;SDS011;6248;49.812;6.620;2023-06-10T00:08:49;4.78;;;4.38;;
12367;SDS011;6248;49.812;6.620;2023-06-10T00:11:16;6.10;;;4.80;;
12367;SDS011;6248;49.812;6.620;2023-06-10T00:13:43;4.75;;;4.43;;
12367;SDS011;6248;49.812;6.620;2023-06-10T00:19:07;4.85;;;4.55;;
12367;SDS011;6248;49.812;6.620;2023-06-10T00:21:34;4.80;;;4.43;;
12367;SDS011;6248;49.812;6.620;2023-06-10T00:24:05;5.15;;;4.50;;
12367;SDS011;6248;49.812;6.620;2023-06-10T00:26:36;5.20;;;4.78;;
12367;SDS011;6248;49.812;6.620;2023-06-10T00:29:04;4.90;;;4.50;;
12367;SDS011;6248;49.812;6.620;2023-06-10T00:31:32;4.80;;;4.40;;
12367;SDS011;6248;49.812;6.620;2023-06-10T00:33:59;5.10;;;4.40;;
12367;SDS011;6248;49.812;6.620;2023-06-10T00:36:28;5.30;;;4.80;;
12367;SDS011;6248;49.812;6.620;2023-06-10T00:38:56;5.20;;;4.70;;
12367;SDS011;6248;49.812;6.620;2023-06-10T00:41:23;4.88;;;4.35;;
12367;SDS011;6248;49.812;6.620;2023-06-10T00:43:51;5.07;;;4.60;;
12367;SDS011;6248;49.812;6.620;2023-06-10T00:46:19;4.70;;;4.38;;
12367;SDS011;6248;49.812;6.620;2023-06-10T00:48:46;4.85;;;4.45;;
12367;SDS011;6248;49.812;6.620;2023-06-10T00:51:14;5.45;;;4.95;;
12367;SDS011;6248;49.812;6.620;2023-06-10T00:53:44;4.80;;;4.45;;
12367;SDS011;6248;49.812;6.620;2023-06-10T00:56:15;4.90;;;4.50;;
12367;SDS011;6248;49.812;6.620;2023-06-10T00:58:51;6.05;;;4.85;;
12367;SDS011;6248;49.812;6.620;2023-06-10T01:01:19;5.03;;;4.53;;
12367;SDS011;6248;49.812;6.620;2023-06-10T01:03:46;4.90;;;4.47;;
12367;SDS011;6248;49.812;6.620;2023-06-10T01:06:17;5.28;;;4.80;;
12367;SDS011;6248;49.812;6.620;2023-06-10T01:08:49;5.43;;;4.78;;
12367;SDS011;6248;49.812;6.620;2023-06-10T01:11:20;5.18;;;4.65;;
12367;SDS011;6248;49.812;6.620;2023-06-10T01:13:48;4.95;;;4.55;;
12367;SDS011;6248;49.812;6.620;2023-06-10T01:16:17;5.22;;;4.72;;
12367;SDS011;6248;49.812;6.620;2023-06-10T01:18:44;5.18;;;4.60;;
12367;SDS011;6248;49.812;6.620;2023-06-10T01:21:15;5.20;;;4.80;;
12367;SDS011;6248;49.812;6.620;2023-06-10T01:23:42;5.38;;;4.90;;
12367;SDS011;6248;49.812;6.620;2023-06-10T01:26:10;4.70;;;4.35;;
12367;SDS011;6248;49.812;6.620;2023-06-10T01:28:40;5.00;;;4.63;;
12367;SDS011;6248;49.812;6.620;2023-06-10T01:31:11;4.70;;;4.40;;
12367;SDS011;6248;49.812;6.620;2023-06-10T01:33:41;5.68;;;4.68;;
12367;SDS011;6248;49.812;6.620;2023-06-10T01:36:10;5.05;;;4.63;;
12367;SDS011;6248;49.812;6.620;2023-06-10T01:38:40;5.88;;;4.75;;
12367;SDS011;6248;49.812;6.620;2023-06-10T01:41:09;5.05;;;4.65;;
12367;SDS011;6248;49.812;6.620;2023-06-10T01:43:37;5.30;;;4.90;;
12367;SDS011;6248;49.812;6.620;2023-06-10T01:46:05;5.13;;;4.72;;
12367;SDS011;6248;49.812;6.620;2023-06-10T01:48:32;4.93;;;4.47;;
12367;SDS011;6248;49.812;6.620;2023-06-10T01:50:59;5.07;;;4.68;;
12367;SDS011;6248;49.812;6.620;2023-06-10T01:53:27;5.10;;;4.70;;
12367;SDS011;6248;49.812;6.620;2023-06-10T01:55:56;5.18;;;4.68;;
12367;SDS011;6248;49.812;6.620;2023-06-10T01:58:23;5.22;;;4.72;;
12367;SDS011;6248;49.812;6.620;2023-06-10T02:00:50;6.53;;;5.35;;
12367;SDS011;6248;49.812;6.620;2023-06-10T02:03:18;4.85;;;4.50;;
12367;SDS011;6248;49.812;6.620;2023-06-10T02:05:45;4.90;;;4.50;;
12367;SDS011;6248;49.812;6.620;2023-06-10T02:08:13;4.97;;;4.57;;
12367;SDS011;6248;49.812;6.620;2023-06-10T02:10:40;5.05;;;4.65;;
12367;SDS011;6248;49.812;6.620;2023-06-10T02:13:09;5.00;;;4.60;;
12367;SDS011;6248;49.812;6.620;2023-06-10T02:15:36;5.15;;;4.75;;
12367;SDS011;6248;49.812;6.620;2023-06-10T02:18:04;4.93;;;4.53;;
12367;SDS011;6248;49.812;6.620;2023-06-10T02:20:31;5.25;;;4.45;;
12367;SDS011;6248;49.812;6.620;2023-06-10T02:22:58;4.82;;;4.43;;
12367;SDS011;6248;49.812;6.620;2023-06-10T02:25:26;4.70;;;4.40;;
12367;SDS011;6248;49.812;6.620;2023-06-10T02:27:53;5.38;;;4.88;;
12367;SDS011;6248;49.812;6.620;2023-06-10T02:30:22;5.13;;;4.72;;
12367;SDS011;6248;49.812;6.620;2023-06-10T02:32:50;5.93;;;4.90;;
12367;SDS011;6248;49.812;6.620;2023-06-10T02:35:17;5.60;;;4.70;;
12367;SDS011;6248;49.812;6.620;2023-06-10T02:37:45;4.93;;;4.53;;
12367;SDS011;6248;49.812;6.620;2023-06-10T02:40:12;5.80;;;4.72;;
12367;SDS011;6248;49.812;6.620;2023-06-10T02:42:39;6.40;;;4.88;;
12367;SDS011;6248;49.812;6.620;2023-06-10T02:45:07;5.28;;;4.38;;
12367;SDS011;6248;49.812;6.620;2023-06-10T02:47:37;5.03;;;4.72;;
12367;SDS011;6248;49.812;6.620;2023-06-10T02:50:05;5.15;;;4.72;;
12367;SDS011;6248;49.812;6.620;2023-06-10T02:52:32;6.75;;;4.90;;
12367;SDS011;6248;49.812;6.620;2023-06-10T02:55:00;5.38;;;4.70;;
12367;SDS011;6248;49.812;6.620;2023-06-10T02:57:27;4.82;;;4.53;;
12367;SDS011;6248;49.812;6.620;2023-06-10T02:59:54;5.82;;;5.32;;
12367;SDS011;6248;49.812;6.620;2023-06-10T03:02:23;5.00;;;4.60;;
12367;SDS011;6248;49.812;6.620;2023-06-10T03:04:54;5.45;;;4.95;;
12367;SDS011;6248;49.812;6.620;2023-06-10T03:07:22;5.20;;;4.80;;
12367;SDS011;6248;49.812;6.620;2023-06-10T03:09:49;4.50;;;4.20;;
12367;SDS011;6248;49.812;6.620;2023-06-10T03:12:16;4.88;;;4.47;;
12367;SDS011;6248;49.812;6.620;2023-06-10T03:14:44;4.53;;;4.13;;
12367;SDS011;6248;49.812;6.620;2023-06-10T03:17:11;5.38;;;4.97;;
12367;SDS011;6248;49.812;6.620;2023-06-10T03:19:38;5.18;;;4.75;;
12367;SDS011;6248;49.812;6.620;2023-06-10T03:22:10;5.68;;;5.18;;
12367;SDS011;6248;49.812;6.620;2023-06-10T03:24:38;5.30;;;4.80;;
12367;SDS011;6248;49.812;6.620;2023-06-10T03:27:06;5.18;;;4.40;;
12367;SDS011;6248;49.812;6.620;2023-06-10T03:29:34;4.90;;;4.50;;
12367;SDS011;6248;49.812;6.620;2023-06-10T03:32:02;5.07;;;4.50;;
12367;SDS011;6248;49.812;6.620;2023-06-10T03:34:29;7.00;;;4.90;;
12367;SDS011;6248;49.812;6.620;2023-06-10T03:36:56;5.20;;;4.90;;
12367;SDS011;6248;49.812;6.620;2023-06-10T03:39:25;5.32;;;4.82;;
12367;SDS011;6248;49.812;6.620;2023-06-10T03:41:54;5.03;;;4.63;;
12367;SDS011;6248;49.812;6.620;2023-06-10T03:44:21;5.10;;;4.68;;
12367;SDS011;6248;49.812;6.620;2023-06-10T03:46:49;4.80;;;4.50;;
12367;SDS011;6248;49.812;6.620;2023-06-10T03:49:16;5.72;;;5.20;;
12367;SDS011;6248;49.812;6.620;2023-06-10T03:51:44;5.50;;;5.00;;
12367;SDS011;6248;49.812;6.620;2023-06-10T03:54:11;5.60;;;4.80;;
12367;SDS011;6248;49.812;6.620;2023-06-10T03:56:40;5.38;;;4.90;;
12367;SDS011;6248;49.812;6.620;2023-06-10T03:59:08;6.05;;;4.82;;
12367;SDS011;6248;49.812;6.620;2023-06-10T04:01:35;5.45;;;4.95;;
12367;SDS011;6248;49.812;6.620;2023-06-10T04:04:02;5.53;;;5.03;;
12367;SDS011;6248;49.812;6.620;2023-06-10T04:06:29;6.20;;;5.03;;
12367;SDS011;6248;49.812;6.620;2023-06-10T04:08:57;5.60;;;5.10;;
12367;SDS011;6248;49.812;6.620;2023-06-10T04:11:24;5.32;;;4.82;;
12367;SDS011;6248;49.812;6.620;2023-06-10T04:13:53;5.70;;;5.20;;
12367;SDS011;6248;49.812;6.620;2023-06-10T04:16:20;5.18;;;4.68;;
12367;SDS011;6248;49.812;6.620;2023-06-10T04:18:47;5.35;;;4.93;;
12367;SDS011;6248;49.812;6.620;2023-06-10T04:21:15;5.30;;;4.90;;
12367;SDS011;6248;49.812;6.620;2023-06-10T04:23:42;7.15;;;4.93;;
12367;SDS011;6248;49.812;6.620;2023-06-10T04:26:10;5.72;;;5.20;;
12367;SDS011;6248;49.812;6.620;2023-06-10T04:28:37;5.35;;;4.85;;
12367;SDS011;6248;49.812;6.620;2023-06-10T04:31:06;5.53;;;4.97;;
12367;SDS011;6248;49.812;6.620;2023-06-10T04:33:33;5.50;;;4.93;;
12367;SDS011;6248;49.812;6.620;2023-06-10T04:36:00;5.60;;;5.18;;
12367;SDS011;6248;49.812;6.620;2023-06-10T04:38:28;4.90;;;4.50;;
12367;SDS011;6248;49.812;6.620;2023-06-10T04:40:55;5.15;;;4.75;;
12367;SDS011;6248;49.812;6.620;2023-06-10T04:43:23;5.53;;;4.90;;
12367;SDS011;6248;49.812;6.620;2023-06-10T04:45:50;5.40;;;4.90;;
12367;SDS011;6248;49.812;6.620;2023-06-10T04:48:19;5.22;;;4.82;;
12367;SDS011;6248;49.812;6.620;2023-06-10T04:50:46;4.80;;;4.40;;
12367;SDS011;6248;49.812;6.620;2023-06-10T04:53:13;5.85;;;5.00;;
12367;SDS011;6248;49.812;6.620;2023-06-10T04:55:41;5.30;;;4.90;;
12367;SDS011;6248;49.812;6.620;2023-06-10T04:58:09;5.60;;;5.00;;
12367;SDS011;6248;49.812;6.620;2023-06-10T05:00:36;5.40;;;4.90;;
12367;SDS011;6248;49.812;6.620;2023-06-10T05:03:03;4.65;;;4.25;;
12367;SDS011;6248;49.812;6.620;2023-06-10T05:05:32;5.03;;;4.63;;
12367;SDS011;6248;49.812;6.620;2023-06-10T05:08:00;5.43;;;4.90;;
12367;SDS011;6248;49.812;6.620;2023-06-10T05:10:27;4.80;;;4.40;;
12367;SDS011;6248;49.812;6.620;2023-06-10T05:12:56;5.55;;;5.05;;
12367;SDS011;6248;49.812;6.620;2023-06-10T05:15:24;5.63;;;5.13;;
12367;SDS011;6248;49.812;6.620;2023-06-10T05:17:51;5.80;;;5.13;;
12367;SDS011;6248;49.812;6.620;2023-06-10T05:20:19;5.68;;;4.80;;
12367;SDS011;6248;49.812;6.620;2023-06-10T05:22:48;5.70;;;4.65;;
12367;SDS011;6248;49.812;6.620;2023-06-10T05:25:15;5.60;;;4.60;;
12367;SDS011;6248;49.812;6.620;2023-06-10T05:27:43;5.38;;;4.97;;
12367;SDS011;6248;49.812;6.620;2023-06-10T05:30:10;5.53;;;4.93;;
12367;SDS011;6248;49.812;6.620;2023-06-10T05:32:38;5.70;;;5.00;;
12367;SDS011;6248;49.812;6.620;2023-06-10T05:35:05;6.47;;;4.80;;
12367;SDS011;6248;49.812;6.620;2023-06-10T05:37:33;5.80;;;5.30;;
12367;SDS011;6248;49.812;6.620;2023-06-10T05:40:03;6.22;;;5.05;;
12367;SDS011;6248;49.812;6.620;2023-06-10T05:42:31;4.97;;;4.57;;
12367;SDS011;6248;49.812;6.620;2023-06-10T05:44:58;5.13;;;4.78;;
12367;SDS011;6248;49.812;6.620;2023-06-10T05:47:26;5.53;;;5.05;;
12367;SDS011;6248;49.812;6.620;2023-06-10T05:49:53;7.35;;;5.60;;
12367;SDS011;6248;49.812;6.620;2023-06-10T05:52:20;5.45;;;5.03;;
12367;SDS011;6248;49.812;6.620;2023-06-10T05:54:48;5.20;;;4.70;;
12367;SDS011;6248;49.812;6.620;2023-06-10T05:57:17;5.75;;;5.25;;
12367;SDS011;6248;49.812;6.620;2023-06-10T05:59:45;5.05;;;4.65;;
12367;SDS011;6248;49.812;6.620;2023-06-10T06:02:12;8.20;;;5.10;;
12367;SDS011;6248;49.812;6.620;2023-06-10T06:04:40;6.38;;;5.05;;
12367;SDS011;6248;49.812;6.620;2023-06-10T06:07:07;5.10;;;4.78;;
12367;SDS011;6248;49.812;6.620;2023-06-10T06:09:35;4.72;;;4.32;;
12367;SDS011;6248;49.812;6.620;2023-06-10T06:12:02;5.32;;;4.93;;
12367;SDS011;6248;49.812;6.620;2023-06-10T06:14:32;5.35;;;4.90;;
12367;SDS011;6248;49.812;6.620;2023-06-10T06:17:00;5.82;;;5.07;;
12367;SDS011;6248;49.812;6.620;2023-06-10T06:19:27;5.70;;;5.20;;
12367;SDS011;6248;49.812;6.620;2023-06-10T06:21:54;4.90;;;4.50;;
12367;SDS011;6248;49.812;6.620;2023-06-10T06:24:21;5.55;;;5.03;;
12367;SDS011;6248;49.812;6.620;2023-06-10T06:26:49;5.22;;;4.72;;
12367;SDS011;6248;49.812;6.620;2023-06-10T06:29:17;5.70;;;5.07;;
12367;SDS011;6248;49.812;6.620;2023-06-10T06:31:46;5.57;;;4.97;;
12367;SDS011;6248;49.812;6.620;2023-06-10T06:34:13;5.43;;;4.93;;
12367;SDS011;6248;49.812;6.620;2023-06-10T06:36:40;5.43;;;4.78;;
12367;SDS011;6248;49.812;6.620;2023-06-10T06:39:08;5.68;;;5.10;;
12367;SDS011;6248;49.812;6.620;2023-06-10T06:41:35;6.22;;;4.82;;
12367;SDS011;6248;49.812;6.620;2023-06-10T06:44:02;5.20;;;4.80;;
12367;SDS011;6248;49.812;6.620;2023-06-10T06:46:30;5.38;;;4.72;;
12367;SDS011;6248;49.812;6.620;2023-06-10T06:48:58;5.55;;;5.13;;
12367;SDS011;6248;49.812;6.620;2023-06-10T06:51:26;5.15;;;4.60;;
12367;SDS011;6248;49.812;6.620;2023-06-10T06:53:53;5.72;;;5.20;;
12367;SDS011;6248;49.812;6.620;2023-06-10T06:56:23;4.80;;;4.38;;
12367;SDS011;6248;49.812;6.620;2023-06-10T06:58:52;5.47;;;4.90;;
12367;SDS011;6248;49.812;6.620;2023-06-10T07:01:19;5.43;;;4.93;;
12367;SDS011;6248;49.812;6.620;2023-06-10T07:03:47;5.22;;;4.72;;
12367;SDS011;6248;49.812;6.620;2023-06-10T07:06:15;4.90;;;4.50;;
12367;SDS011;6248;49.812;6.620;2023-06-10T07:08:43;5.18;;;4.72;;
12367;SDS011;6248;49.812;6.620;2023-06-10T07:11:10;5.20;;;4.60;;
12367;SDS011;6248;49.812;6.620;2023-06-10T07:13:37;4.75;;;4.35;;
12367;SDS011;6248;49.812;6.620;2023-06-10T07:16:04;5.10;;;4.60;;
12367;SDS011;6248;49.812;6.620;2023-06-10T07:18:32;4.85;;;4.45;;
12367;SDS011;6248;49.812;6.620;2023-06-10T07:20:59;7.32;;;4.57;;
12367;SDS011;6248;49.812;6.620;2023-06-10T07:23:28;4.90;;;4.50;;
12367;SDS011;6248;49.812;6.620;2023-06-10T07:25:55;5.88;;;4.30;;
12367;SDS011;6248;49.812;6.620;2023-06-10T07:28:23;4.45;;;4.05;;
12367;SDS011;6248;49.812;6.620;2023-06-10T07:30:50;4.63;;;4.22;;
12367;SDS011;6248;49.812;6.620;2023-06-10T07:33:17;4.60;;;4.20;;
12367;SDS011;6248;49.812;6.620;2023-06-10T07:35:44;4.40;;;4.00;;
12367;SDS011;6248;49.812;6.620;2023-06-10T07:38:12;4.93;;;4.38;;
12367;SDS011;6248;49.812;6.620;2023-06-10T07:40:40;4.80;;;4.22;;
12367;SDS011;6248;49.812;6.620;2023-06-10T07:43:08;5.43;;;4.50;;
12367;SDS011;6248;49.812;6.620;2023-06-10T07:45:35;4.35;;;3.97;;
12367;SDS011;6248;49.812;6.620;2023-06-10T07:48:03;5.40;;;4.90;;
12367;SDS011;6248;49.812;6.620;2023-06-10T07:50:30;4.22;;;3.80;;
12367;SDS011;6248;49.812;6.620;2023-06-10T07:52:57;4.32;;;4.00;;
12367;SDS011;6248;49.812;6.620;2023-06-10T07:55:25;4.45;;;4.05;;
12367;SDS011;6248;49.812;6.620;2023-06-10T07:57:54;4.88;;;4.03;;
12367;SDS011;6248;49.812;6.620;2023-06-10T08:00:21;4.28;;;3.88;;
12367;SDS011;6248;49.812;6.620;2023-06-10T08:02:48;4.28;;;3.90;;
12367;SDS011;6248;49.812;6.620;2023-06-10T08:05:17;4.43;;;4.07;;
12367;SDS011;6248;49.812;6.620;2023-06-10T08:07:45;4.10;;;3.80;;
12367;SDS011;6248;49.812;6.620;2023-06-10T08:10:12;3.92;;;3.63;;
12367;SDS011;6248;49.812;6.620;2023-06-10T08:12:39;3.97;;;3.60;;
12367;SDS011;6248;49.812;6.620;2023-06-10T08:15:10;4.68;;;3.65;;
12367;SDS011;6248;49.812;6.620;2023-06-10T08:17:37;3.85;;;3.55;;
12367;SDS011;6248;49.812;6.620;2023-06-10T08:20:05;3.65;;;3.30;;
12367;SDS011;6248;49.812;6.620;2023-06-10T08:22:33;4.18;;;3.88;;
12367;SDS011;6248;49.812;6.620;2023-06-10T08:25:00;4.20;;;3.80;;
12367;SDS011;6248;49.812;6.620;2023-06-10T08:27:27;3.90;;;3.60;;
12367;SDS011;6248;49.812;6.620;2023-06-10T08:29:55;5.78;;;3.75;;
12367;SDS011;6248;49.812;6.620;2023-06-10T08:32:24;3.85;;;3.42;;
12367;SDS011;6248;49.812;6.620;2023-06-10T08:34:51;3.90;;;3.60;;
12367;SDS011;6248;49.812;6.620;2023-06-10T08:37:19;3.47;;;3.28;;
12367;SDS011;6248;49.812;6.620;2023-06-10T08:39:47;4.00;;;3.70;;
12367;SDS011;6248;49.812;6.620;2023-06-10T08:42:16;4.07;;;3.65;;
12367;SDS011;6248;49.812;6.620;2023-06-10T08:44:48;4.38;;;3.97;;
12367;SDS011;6248;49.812;6.620;2023-06-10T08:47:16;3.90;;;3.60;;
12367;SDS011;6248;49.812;6.620;2023-06-10T08:49:46;4.32;;;3.80;;
12367;SDS011;6248;49.812;6.620;2023-06-10T08:52:14;3.90;;;3.60;;
12367;SDS011;6248;49.812;6.620;2023-06-10T08:54:43;4.43;;;4.03;;
12367;SDS011;6248;49.812;6.620;2023-06-10T08:57:10;4.22;;;3.92;;
12367;SDS011;6248;49.812;6.620;2023-06-10T08:59:39;4.22;;;3.90;;
12367;SDS011;6248;49.812;6.620;2023-06-10T09:02:08;4.30;;;3.90;;
12367;SDS011;6248;49.812;6.620;2023-06-10T09:04:36;4.28;;;3.58;;
12367;SDS011;6248;49.812;6.620;2023-06-10T09:07:05;5.68;;;4.25;;
12367;SDS011;6248;49.812;6.620;2023-06-10T09:09:33;4.63;;;4.10;;
12367;SDS011;6248;49.812;6.620;2023-06-10T09:12:02;4.20;;;3.90;;
12367;SDS011;6248;49.812;6.620;2023-06-10T09:14:29;4.50;;;3.85;;
12367;SDS011;6248;49.812;6.620;2023-06-10T09:16:57;4.18;;;3.78;;
12367;SDS011;6248;49.812;6.620;2023-06-10T09:19:25;4.10;;;3.60;;
12367;SDS011;6248;49.812;6.620;2023-06-10T09:21:52;4.20;;;3.90;;
12367;SDS011;6248;49.812;6.620;2023-06-10T09:24:22;4.05;;;3.65;;
12367;SDS011;6248;49.812;6.620;2023-06-10T09:26:49;4.07;;;3.70;;
12367;SDS011;6248;49.812;6.620;2023-06-10T09:29:17;5.13;;;3.67;;
12367;SDS011;6248;49.812;6.620;2023-06-10T09:31:44;4.85;;;3.65;;
12367;SDS011;6248;49.812;6.620;2023-06-10T09:34:12;3.60;;;3.40;;
12367;SDS011;6248;49.812;6.620;2023-06-10T09:36:40;4.07;;;3.72;;
12367;SDS011;6248;49.812;6.620;2023-06-10T09:39:13;4.05;;;3.63;;
12367;SDS011;6248;49.812;6.620;2023-06-10T09:41:42;4.50;;;4.10;;
12367;SDS011;6248;49.812;6.620;2023-06-10T09:44:11;5.43;;;3.78;;
12367;SDS011;6248;49.812;6.620;2023-06-10T09:46:39;3.67;;;3.30;;
12367;SDS011;6248;49.812;6.620;2023-06-10T09:49:07;3.40;;;3.20;;
12367;SDS011;6248;49.812;6.620;2023-06-10T09:51:34;4.25;;;3.80;;
12367;SDS011;6248;49.812;6.620;2023-06-10T09:54:02;4.60;;;3.78;;
12367;SDS011;6248;49.812;6.620;2023-06-10T09:56:33;4.50;;;4.10;;
12367;SDS011;6248;49.812;6.620;2023-06-10T09:59:03;3.75;;;3.55;;
12367;SDS011;6248;49.812;6.620;2023-06-10T10:01:31;7.03;;;3.85;;
12367;SDS011;6248;49.812;6.620;2023-06-10T10:03:59;3.88;;;3.50;;
12367;SDS011;6248;49.812;6.620;2023-06-10T10:06:27;3.85;;;3.50;;
12367;SDS011;6248;49.812;6.620;2023-06-10T10:08:55;4.10;;;3.60;;
12367;SDS011;6248;49.812;6.620;2023-06-10T10:11:24;4.85;;;3.97;;
12367;SDS011;6248;49.812;6.620;2023-06-10T10:13:52;4.40;;;3.97;;
12367;SDS011;6248;49.812;6.620;2023-06-10T10:16:23;4.60;;;3.50;;
12367;SDS011;6248;49.812;6.620;2023-06-10T10:18:54;4.18;;;3.78;;
12367;SDS011;6248;49.812;6.620;2023-06-10T10:21:24;4.20;;;3.80;;
12367;SDS011;6248;49.812;6.620;2023-06-10T10:23:57;4.97;;;3.88;;
12367;SDS011;6248;49.812;6.620;2023-06-10T10:26:27;3.45;;;3.25;;
12367;SDS011;6248;49.812;6.620;2023-06-10T10:28:58;4.10;;;3.50;;
12367;SDS011;6248;49.812;6.620;2023-06-10T10:31:32;3.70;;;3.05;;
12367;SDS011;6248;49.812;6.620;2023-06-10T10:34:04;4.00;;;3.70;;
12367;SDS011;6248;49.812;6.620;2023-06-10T10:36:32;3.67;;;3.38;;
12367;SDS011;6248;49.812;6.620;2023-06-10T10:39:01;3.88;;;3.58;;
12367;SDS011;6248;49.812;6.620;2023-06-10T10:41:30;4.03;;;3.70;;
12367;SDS011;6248;49.812;6.620;2023-06-10T10:43:58;4.20;;;3.28;;
12367;SDS011;6248;49.812;6.620;2023-06-10T10:46:27;6.97;;;3.25;;
12367;SDS011;6248;49.812;6.620;2023-06-10T10:48:56;3.78;;;3.45;;
12367;SDS011;6248;49.812;6.620;2023-06-10T10:51:25;3.42;;;3.10;;
12367;SDS011;6248;49.812;6.620;2023-06-10T10:54:12;6.68;;;3.15;;
12367;SDS011;6248;49.812;6.620;2023-06-10T10:56:42;3.22;;;3.03;;
12367;SDS011;6248;49.812;6.620;2023-06-10T10:59:42;3.03;;;2.80;;
12367;SDS011;6248;49.812;6.620;2023-06-10T11:02:14;5.85;;;3.20;;
12367;SDS011;6248;49.812;6.620;2023-06-10T11:04:48;6.30;;;2.83;;
12367;SDS011;6248;49.812;6.620;2023-06-10T11:07:19;6.25;;;2.97;;
12367;SDS011;6248;49.812;6.620;2023-06-10T11:10:00;3.33;;;3.03;;
12367;SDS011;6248;49.812;6.620;2023-06-10T11:12:40;6.80;;;3.10;;
12367;SDS011;6248;49.812;6.620;2023-06-10T11:15:08;5.72;;;2.72;;
12367;SDS011;6248;49.812;6.620;2023-06-10T11:17:36;2.88;;;2.58;;
12367;SDS011;6248;49.812;6.620;2023-06-10T11:20:06;3.05;;;2.80;;
12367;SDS011;6248;49.812;6.620;2023-06-10T11:22:42;4.53;;;3.13;;
12367;SDS011;6248;49.812;6.620;2023-06-10T11:25:28;2.92;;;2.70;;
12367;SDS011;6248;49.812;6.620;2023-06-10T11:28:16;2.80;;;2.30;;
12367;SDS011;6248;49.812;6.620;2023-06-10T11:30:44;2.70;;;2.50;;
12367;SDS011;6248;49.812;6.620;2023-06-10T11:33:14;3.08;;;2.88;;
12367;SDS011;6248;49.812;6.620;2023-06-10T11:35:43;4.30;;;2.83;;
12367;SDS011;6248;49.812;6.620;2023-06-10T11:38:10;3.13;;;2.47;;
12367;SDS011;6248;49.812;6.620;2023-06-10T11:40:38;5.18;;;2.70;;
12367;SDS011;6248;49.812;6.620;2023-06-10T11:43:06;4.45;;;2.60;;
12367;SDS011;6248;49.812;6.620;2023-06-10T11:45:33;2.90;;;2.58;;
12367;SDS011;6248;49.812;6.620;2023-06-10T11:48:01;3.13;;;2.75;;
12367;SDS011;6248;49.812;6.620;2023-06-10T11:50:29;2.97;;;2.75;;
12367;SDS011;6248;49.812;6.620;2023-06-10T11:52:58;3.55;;;2.58;;
12367;SDS011;6248;49.812;6.620;2023-06-10T11:55:25;2.75;;;2.55;;
12367;SDS011;6248;49.812;6.620;2023-06-10T11:57:52;4.05;;;2.45;;
12367;SDS011;6248;49.812;6.620;2023-06-10T12:00:22;4.63;;;2.50;;
12367;SDS011;6248;49.812;6.620;2023-06-10T12:02:56;4.03;;;2.38;;
12367;SDS011;6248;49.812;6.620;2023-06-10T12:05:24;2.83;;;2.63;;
12367;SDS011;6248;49.812;6.620;2023-06-10T12:10:39;2.60;;;2.40;;
12367;SDS011;6248;49.812;6.620;2023-06-10T12:13:07;2.80;;;2.60;;
12367;SDS011;6248;49.812;6.620;2023-06-10T12:15:35;3.95;;;2.88;;
12367;SDS011;6248;49.812;6.620;2023-06-10T12:18:02;2.70;;;2.50;;
12367;SDS011;6248;49.812;6.620;2023-06-10T12:20:30;3.40;;;2.33;;
12367;SDS011;6248;49.812;6.620;2023-06-10T12:22:58;2.85;;;2.50;;
12367;SDS011;6248;49.812;6.620;2023-06-10T12:25:26;2.70;;;2.35;;
12367;SDS011;6248;49.812;6.620;2023-06-10T12:27:56;4.00;;;2.47;;
12367;SDS011;6248;49.812;6.620;2023-06-10T12:30:23;2.60;;;2.40;;
12367;SDS011;6248;49.812;6.620;2023-06-10T12:32:51;3.88;;;2.63;;
12367;SDS011;6248;49.812;6.620;2023-06-10T12:35:19;2.80;;;2.60;;
12367;SDS011;6248;49.812;6.620;2023-06-10T12:37:54;3.13;;;2.78;;
12367;SDS011;6248;49.812;6.620;2023-06-10T12:40:25;3.83;;;2.65;;
12367;SDS011;6248;49.812;6.620;2023-06-10T12:42:53;3.00;;;2.45;;
12367;SDS011;6248;49.812;6.620;2023-06-10T12:45:27;2.63;;;2.40;;
12367;SDS011;6248;49.812;6.620;2023-06-10T12:48:04;2.85;;;2.55;;
12367;SDS011;6248;49.812;6.620;2023-06-10T12:50:32;2.70;;;2.50;;
12367;SDS011;6248;49.812;6.620;2023-06-10T12:52:59;2.85;;;2.50;;
12367;SDS011;6248;49.812;6.620;2023-06-10T12:55:27;2.72;;;2.53;;
12367;SDS011;6248;49.812;6.620;2023-06-10T12:57:54;3.60;;;2.70;;
12367;SDS011;6248;49.812;6.620;2023-06-10T13:00:22;4.57;;;2.75;;
12367;SDS011;6248;49.812;6.620;2023-06-10T13:02:52;3.28;;;3.08;;
12367;SDS011;6248;49.812;6.620;2023-06-10T13:05:20;3.22;;;3.00;;
12367;SDS011;6248;49.812;6.620;2023-06-10T13:07:47;2.80;;;2.58;;
12367;SDS011;6248;49.812;6.620;2023-06-10T13:10:16;3.20;;;2.90;;
12367;SDS011;6248;49.812;6.620;2023-06-10T13:12:43;3.17;;;2.85;;
12367;SDS011;6248;49.812;6.620;2023-06-10T13:15:11;3.10;;;2.80;;
12367;SDS011;6248;49.812;6.620;2023-06-10T13:17:39;3.58;;;3.10;;
12367;SDS011;6248;49.812;6.620;2023-06-10T13:20:08;6.35;;;3.15;;
12367;SDS011;6248;49.812;6.620;2023-06-10T13:22:36;2.85;;;2.60;;
12367;SDS011;6248;49.812;6.620;2023-06-10T13:25:04;3.85;;;2.80;;
12367;SDS011;6248;49.812;6.620;2023-06-10T13:27:33;3.25;;;2.95;;
12367;SDS011;6248;49.812;6.620;2023-06-10T13:30:00;3.47;;;2.90;;
12367;SDS011;6248;49.812;6.620;2023-06-10T13:32:28;3.65;;;2.97;;
12367;SDS011;6248;49.812;6.620;2023-06-10T13:34:55;3.83;;;3.00;;
12367;SDS011;6248;49.812;6.620;2023-06-10T13:37:24;3.30;;;3.00;;
12367;SDS011;6248;49.812;6.620;2023-06-10T13:39:51;2.92;;;2.72;;
12367;SDS011;6248;49.812;6.620;2023-06-10T13:42:19;3.00;;;2.60;;
12367;SDS011;6248;49.812;6.620;2023-06-10T13:44:46;3.15;;;2.95;;
12367;SDS011;6248;49.812;6.620;2023-06-10T13:47:14;4.28;;;3.08;;
12367;SDS011;6248;49.812;6.620;2023-06-10T13:49:41;3.00;;;2.80;;
12367;SDS011;6248;49.812;6.620;2023-06-10T13:52:09;3.90;;;3.30;;
12367;SDS011;6248;49.812;6.620;2023-06-10T13:54:38;3.42;;;3.13;;
12367;SDS011;6248;49.812;6.620;2023-06-10T13:57:05;3.95;;;3.13;;
12367;SDS011;6248;49.812;6.620;2023-06-10T13:59:35;3.13;;;2.90;;
12367;SDS011;6248;49.812;6.620;2023-06-10T14:02:03;3.10;;;2.80;;
12367;SDS011;6248;49.812;6.620;2023-06-10T14:04:30;3.70;;;3.03;;
12367;SDS011;6248;49.812;6.620;2023-06-10T14:06:57;3.28;;;2.85;;
12367;SDS011;6248;49.812;6.620;2023-06-10T14:09:25;3.25;;;2.95;;
12367;SDS011;6248;49.812;6.620;2023-06-10T14:11:55;3.38;;;2.88;;
12367;SDS011;6248;49.812;6.620;2023-06-10T14:14:22;2.88;;;2.65;;
12367;SDS011;6248;49.812;6.620;2023-06-10T14:16:50;6.15;;;2.92;;
12367;SDS011;6248;49.812;6.620;2023-06-10T14:19:17;3.40;;;2.65;;
12367;SDS011;6248;49.812;6.620;2023-06-10T14:21:45;3.17;;;2.90;;
12367;SDS011;6248;49.812;6.620;2023-06-10T14:24:12;4.03;;;2.50;;
12367;SDS011;6248;49.812;6.620;2023-06-10T14:26:39;4.43;;;2.80;;
12367;SDS011;6248;49.812;6.620;2023-06-10T14:29:08;3.00;;;2.70;;
12367;SDS011;6248;49.812;6.620;2023-06-10T14:31:39;4.10;;;3.05;;
12367;SDS011;6248;49.812;6.620;2023-06-10T14:34:06;4.90;;;2.80;;
12367;SDS011;6248;49.812;6.620;2023-06-10T14:36:33;3.58;;;2.80;;
12367;SDS011;6248;49.812;6.620;2023-06-10T14:39:02;3.17;;;2.88;;
12367;SDS011;6248;49.812;6.620;2023-06-10T14:41:29;4.95;;;2.95;;
12367;SDS011;6248;49.812;6.620;2023-06-10T14:43:57;3.50;;;3.03;;
12367;SDS011;6248;49.812;6.620;2023-06-10T14:46:26;3.00;;;2.80;;
12367;SDS011;6248;49.812;6.620;2023-06-10T14:48:53;3.05;;;2.85;;
12367;SDS011;6248;49.812;6.620;2023-06-10T14:51:20;3.30;;;3.10;;
12367;SDS011;6248;49.812;6.620;2023-06-10T14:53:47;3.10;;;2.90;;
12367;SDS011;6248;49.812;6.620;2023-06-10T14:56:15;3.50;;;3.17;;
12367;SDS011;6248;49.812;6.620;2023-06-10T14:58:42;4.72;;;3.03;;
12367;SDS011;6248;49.812;6.620;2023-06-10T15:01:10;3.33;;;3.03;;
12367;SDS011;6248;49.812;6.620;2023-06-10T15:03:38;3.08;;;2.78;;
12367;SDS011;6248;49.812;6.620;2023-06-10T15:06:06;4.80;;;2.95;;
12367;SDS011;6248;49.812;6.620;2023-06-10T15:08:33;2.92;;;2.60;;
12367;SDS011;6248;49.812;6.620;2023-06-10T15:11:00;3.70;;;3.10;;
12367;SDS011;6248;49.812;6.620;2023-06-10T15:13:28;3.50;;;3.20;;